• Join FlightAware (Why Join?)
  • Login
  • US Flag 
10:25PM EDT


 

Airport Tracker/Info


-or-


 

Live Flight TrackerFlight Track Log ✈ GJS6314 ✈ 22-Jul-2013 ✈ KRDU - KCVG

Flight Track Log - Related Links

Times and Time Zones

All times are in EDT time to prevent confusion due to time zone crossing. See the GJS6314 flight status page for this flight to view local times or setup timezone preferences in your user account.

Time Position Orientation Groundspeed Altitude Reporting Facility
EDT Latitude Longitude Course Direction KTS MPH feet Rate Location/Type
01:46PM 35.8442 -79.0178 270° West 284 327 9,400  Level Washington Center
01:46PM 35.8411 -79.1253 268° West 289 333 12,500 2,520 Climbing Washington Center
01:47PM 35.8400 -79.2303 269° West 311 358 14,400 1,860 Climbing Washington Center
01:48PM 35.8317 -79.3633 266° West 344 396 16,400 1,860 Climbing Washington Center
01:49PM 35.8242 -79.3829 262° West  Level FlightAware Approximate
01:49PM 35.8239 -79.4781 265° West 374 430 18,200  Level Washington Center
01:50PM 35.8167 -79.5029 270° West  Level FlightAware Approximate
01:51PM 35.8000 -79.6029 270° West  Level FlightAware Approximate
01:51PM 35.7931 -79.6764 259° West 390 449 21,200  Level Atlanta Center
01:52PM 35.7703 -79.8056 258° West 390 449 23,000 1,800 Climbing Atlanta Center
01:53PM 35.7478 -79.9372 258° West 395 455 24,800 1,680 Climbing Atlanta Center
01:54PM 35.7247 -80.0636 257° West 395 455 26,400 1,500 Climbing Atlanta Center
01:55PM 35.6983 -80.2133 258° West 395 455 27,800 1,260 Climbing Atlanta Center
01:56PM 35.6797 -80.3547 261° West 411 473 29,000 1,200 Climbing Atlanta Center
01:57PM 35.7231 -80.4858 292° West 403 464 30,200 1,140 Climbing Atlanta Center
01:58PM 35.7831 -80.6164 300° West 421 484 31,300 960 Climbing Atlanta Center
01:59PM 35.8431 -80.7494 299° West 435 501 32,200 900 Climbing Atlanta Center
02:00PM 35.9050 -80.8856 299° West 452 520 33,100 900 Climbing Atlanta Center
02:01PM 35.9669 -81.0242 299° West 452 520 34,000 420 Climbing Atlanta Center
02:02PM 36.0289 -81.1631 299° West 452 520 34,000 180 Level Atlanta Center
02:03PM 36.0861 -81.3025 297° West 452 520 34,400 660 Climbing Atlanta Center
02:04PM 36.1475 -81.4392 299° West 447 514 35,400 780 Climbing Atlanta Center
02:05PM 36.2067 -81.5761 298° West 447 514 36,000 300 Climbing Atlanta Center
02:06PM 36.2569 -81.6983 297° West 447 514 36,000  Level Atlanta Center
02:07PM 36.3139 -81.8383 297° West 446 513 36,000  Level Atlanta Center
02:08PM 36.3747 -81.9811 298° West 440 506 36,000  Level Atlanta Center
02:09PM 36.4353 -82.1111 300° West 432 497 36,000  Level Atlanta Center
02:10PM 36.5058 -82.2308 306° West 432 497 36,000 -180 Level Atlanta Center
02:12PM 36.6683 -82.5097 306° West 435 501 35,500 -360 Descending Indianapolis Center
02:13PM 36.7428 -82.6361 306° West 447 514 34,800 -720 Descending Indianapolis Center
02:14PM 36.8172 -82.7625 306° West 450 518 34,100 -420 Descending Indianapolis Center
02:15PM 36.8939 -82.8928 306° West 454 522 34,000 -180 Descending Indianapolis Center
02:16PM 36.9778 -83.0353 306° West 471 542 33,800 -360 Descending Indianapolis Center
02:17PM 37.0517 -83.1611 306° West 453 521 33,300 -540 Descending Indianapolis Center
02:19PM 37.1103 -83.2964 299° West 450 518 32,800 -540 Descending Indianapolis Center
02:20PM 37.1075 -83.4492 269° West 443 510 32,300 -420 Descending Indianapolis Center
02:21PM 37.0942 -83.6042 264° West 447 514 32,000 -180 Descending Indianapolis Center
02:22PM 37.0856 -83.7850 267° West 446 513 32,000 -300 Level Indianapolis Center
02:23PM 37.1108 -83.9369 282° West 450 518 31,500 -1,320 Descending Indianapolis Center
02:24PM 37.2158 -84.0294 325° Northwest 470 541 29,300 -2,340 Descending Indianapolis Center
02:25PM 37.3508 -84.0450 355° North 483 556 26,800 -2,460 Descending Indianapolis Center
02:26PM 37.4831 -84.0528 357° North 476 548 24,300 -1,380 Descending Indianapolis Center
02:27PM 37.6083 -84.0650 356° North 451 519 24,000 -420 Descending Indianapolis Center
02:28PM 37.7317 -84.0792 355° North 444 511 23,500 -780 Descending Indianapolis Center
02:29PM 37.8547 -84.0917 355° North 443 510 22,400 -1,680 Descending Indianapolis Center
02:30PM 37.9947 -84.1058 355° North 431 496 20,100 -2,400 Descending Indianapolis Center
02:31PM 38.1069 -84.1175 355° North 406 467 17,500 -2,520 Descending Indianapolis Center
02:32PM 38.2203 -84.1292 355° North 405 466 15,000 -2,460 Descending Indianapolis Center
02:33PM 38.3281 -84.1406 355° North 390 449 12,500 -1,980 Descending Indianapolis Center
02:34PM 38.4272 -84.1542 354° North 361 415 11,000 -780 Descending Indianapolis Center
02:35PM 38.5156 -84.2136 332° Northwest 361 415 11,000  Level Indianapolis Center
02:36PM 38.6047 -84.2783 330° Northwest 367 422 11,000  Level Indianapolis Center
02:37PM 38.6914 -84.3522 326° Northwest 350 403 11,000  Level Indianapolis Center
02:38PM 38.7614 -84.4100 327° Northwest 296 341 11,000 -300 Level Indianapolis Center
02:39PM 38.8275 -84.4656 327° Northwest 281 323 10,400 -840 Descending Indianapolis Center
02:40PM 38.8919 -84.5192 327° Northwest 275 316 9,300 -720 Descending Indianapolis Center
02:41PM 38.9661 -84.5422 346° North 277 319 9,000 -660 Descending Indianapolis Center
02:42PM 39.0400 -84.5475 357° North 268 308 8,000 -1,320 Descending Indianapolis Center
02:43PM 39.1161 -84.5497 359° North 241 277 6,400 -1,560 Descending Indianapolis Center
02:44PM 39.1781 -84.5519 358° North 227 261 4,800 -1,200 Descending Indianapolis Center
02:45PM 39.2033 -84.6086 300° West 218 251 4,000 -840 Descending Indianapolis Center
02:46PM 39.1997 -84.6714 266° West 200 230 3,100 -840 Descending Indianapolis Center
02:48PM 39.1000 -84.6667 178° South 116 133 1,500 -840 Descending Cincinnati TRACON
02:50PM 39.0488 -84.6678 180° South  Level Estimated
02:57PM 39.0488 -84.6678 180° South  Level Estimated
02:58PM 39.0488 -84.6678 180° South  Level Estimated
02:59PM 39.0488 -84.6678 180° South  Level Estimated
03:00PM 39.0488 -84.6678 180° South  Level Estimated
03:01PM 39.0488 -84.6678 180° South  Level Estimated
03:02PM 39.0488 -84.6678 180° South  Level Estimated
03:03PM 39.0488 -84.6678 180° South  Level Estimated
03:04PM 39.0488 -84.6678 180° South  Level Estimated
03:05PM 39.0488 -84.6678 180° South  Level Estimated
03:06PM 39.0488 -84.6678 180° South  Level Estimated
03:07PM 39.0488 -84.6678 180° South  Level Estimated
03:08PM 39.0488 -84.6678 180° South  Level Estimated
03:09PM 39.0488 -84.6678 180° South  Level Estimated